Time;durP1;ratioP1;P1;durP2;ratioP2;P2;SDS_P1;SDS_P2;PMS_P1;PMS_P2;Temp;Humidity;BMP_temperature;BMP_pressure;BME280_temperature;BME280_humidity;BME280_pressure;Samples;Min_cycle;Max_cycle;Signal;HPM_P1;HPM_P2
2022/04/15 00:00:06;;;;;;;331.75;303.98;;;;;;;18.96;36.01;94126.00;5008386;28;20102;-68
2022/04/15 00:02:52;;;;;;;332.45;303.25;;;;;;;18.97;36.13;94127.50;5025224;28;20056;-68
2022/04/15 00:05:36;;;;;;;333.50;305.15;;;;;;;18.98;36.07;94130.97;5031342;28;20505;-68
2022/04/15 00:08:09;;;;;;;326.52;298.27;;;;;;;18.96;36.25;94134.16;5031027;28;20063;-68
2022/04/15 00:10:35;;;;;;;339.98;310.77;;;;;;;18.98;36.14;94137.16;5026728;28;20069;-68
2022/04/15 00:13:02;;;;;;;342.40;313.33;;;;;;;18.98;36.09;94126.31;5012558;28;20052;-68
2022/04/15 00:15:27;;;;;;;331.98;304.70;;;;;;;18.99;35.94;94130.53;5026769;28;20084;-68
2022/04/15 00:17:54;;;;;;;341.63;312.95;;;;;;;18.99;36.18;94130.53;5024684;28;20399;-68
2022/04/15 00:20:20;;;;;;;324.30;297.23;;;;;;;18.99;35.94;94140.59;5017634;28;20107;-68
2022/04/15 00:22:46;;;;;;;321.15;294.15;;;;;;;18.98;36.10;94131.72;5032423;28;20112;-68
2022/04/15 00:25:13;;;;;;;330.13;302.75;;;;;;;18.97;35.93;94132.94;5032299;28;20033;-68
2022/04/15 00:27:40;;;;;;;337.65;309.63;;;;;;;18.97;35.93;94143.78;5031665;28;20037;-68
2022/04/15 00:30:07;;;;;;;342.75;312.70;;;;;;;18.97;36.26;94151.16;5033166;28;20037;-68
2022/04/15 00:32:33;;;;;;;323.63;295.92;;;;;;;18.97;36.02;94138.34;5032841;28;20039;-68
2022/04/15 00:34:59;;;;;;;331.90;304.58;;;;;;;18.97;36.07;94137.59;5013020;28;20436;-68
2022/04/15 00:37:25;;;;;;;339.35;310.60;;;;;;;18.97;36.11;94143.03;5028274;28;20056;-68
2022/04/15 00:39:52;;;;;;;323.23;296.25;;;;;;;18.95;36.01;94129.19;5038061;28;20787;-68
2022/04/15 00:42:17;;;;;;;326.98;299.58;;;;;;;18.94;36.02;94130.38;5031901;28;20044;-68
2022/04/15 00:44:43;;;;;;;332.83;305.20;;;;;;;18.96;35.99;94136.09;5037575;28;20044;-68
2022/04/15 00:47:24;;;;;;;327.27;299.65;;;;;;;18.95;36.15;94132.63;5032367;28;20430;-68
2022/04/15 00:49:49;;;;;;;333.80;305.45;;;;;;;18.96;36.06;94130.69;5036246;28;20037;-68
2022/04/15 00:52:17;;;;;;;341.63;313.25;;;;;;;18.97;36.14;94126.75;5033492;28;20136;-68
2022/04/15 00:54:44;;;;;;;329.73;301.65;;;;;;;18.97;36.14;94124.06;5016722;28;20082;-68
2022/04/15 00:57:11;;;;;;;336.48;307.98;;;;;;;18.97;36.01;94129.47;5016321;28;20045;-68
2022/04/15 00:59:38;;;;;;;330.25;302.27;;;;;;;18.96;36.14;94130.69;5032196;28;20656;-68
2022/04/15 01:02:05;;;;;;;328.45;300.88;;;;;;;18.92;36.26;94128.13;5034004;28;20037;-67
2022/04/15 01:04:31;;;;;;;333.25;305.63;;;;;;;18.94;36.02;94127.69;5033564;28;20132;-68
2022/04/15 01:07:02;;;;;;;354.90;324.38;;;;;;;18.93;36.07;94140.47;5030281;28;20052;-66
2022/04/15 01:09:32;;;;;;;326.27;299.02;;;;;;;18.94;36.18;94149.34;5037368;28;20434;-68
2022/04/15 01:11:58;;;;;;;336.42;307.60;;;;;;;18.94;36.37;94147.41;5034592;28;20041;-68
2022/04/15 01:14:25;;;;;;;337.60;309.58;;;;;;;18.95;36.38;94140.03;5016982;28;20486;-68
2022/04/15 01:16:51;;;;;;;332.80;304.38;;;;;;;18.94;36.24;94150.09;5027979;28;20191;-68
2022/04/15 01:19:17;;;;;;;326.80;299.33;;;;;;;18.94;36.26;94146.66;5037360;28;20049;-68
2022/04/15 01:21:44;;;;;;;334.00;306.35;;;;;;;18.93;36.16;94145.16;5042928;28;20446;-68
2022/04/15 01:24:10;;;;;;;340.50;311.25;;;;;;;18.93;36.08;94150.56;5018541;28;20149;-68
2022/04/15 01:26:38;;;;;;;328.92;301.60;;;;;;;18.93;36.07;94148.59;5031831;28;20053;-66
2022/04/15 01:29:04;;;;;;;348.58;320.35;;;;;;;18.94;36.15;94146.66;5039203;28;20068;-68
2022/04/15 01:31:31;;;;;;;337.70;309.05;;;;;;;18.95;36.05;94148.16;5014499;28;20536;-68
2022/04/15 01:33:59;;;;;;;344.70;315.70;;;;;;;18.94;36.25;94147.41;5036794;28;20049;-68
2022/04/15 01:36:26;;;;;;;331.20;303.38;;;;;;;18.93;36.15;94150.56;5037773;28;20037;-68
2022/04/15 01:38:57;;;;;;;329.83;302.60;;;;;;;18.92;36.31;94155.22;5018016;28;20146;-68
2022/04/15 01:41:23;;;;;;;336.33;308.83;;;;;;;18.92;36.40;94162.59;5037235;28;20494;-68
2022/04/15 01:43:49;;;;;;;336.88;308.75;;;;;;;18.92;36.18;94157.94;5027250;28;20048;-69
2022/04/15 01:46:15;;;;;;;336.70;308.45;;;;;;;18.93;36.26;94158.69;5042894;28;20037;-66
2022/04/15 01:48:40;;;;;;;342.30;313.63;;;;;;;18.93;36.09;94162.16;5034364;28;20056;-68
2022/04/15 01:51:06;;;;;;;361.38;330.52;;;;;;;18.92;36.17;94162.59;5027360;28;20056;-68
2022/04/15 01:53:31;;;;;;;347.77;318.70;;;;;;;18.92;36.21;94160.66;5020485;28;20038;-68
2022/04/15 01:55:57;;;;;;;342.13;313.65;;;;;;;18.92;36.16;94165.31;5020583;28;20048;-68
2022/04/15 01:58:22;;;;;;;333.67;305.38;;;;;;;18.91;36.41;94158.41;5032230;28;20043;-68
2022/04/15 02:00:48;;;;;;;334.23;305.67;;;;;;;18.90;36.22;94160.34;5019810;28;20044;-68
2022/04/15 02:03:14;;;;;;;331.83;304.38;;;;;;;18.91;36.21;94155.69;5034313;28;20521;-69
2022/04/15 02:05:39;;;;;;;331.83;303.08;;;;;;;18.90;36.10;94146.06;5018641;28;20047;-68
2022/04/15 02:08:05;;;;;;;340.92;312.70;;;;;;;18.95;36.07;94140.03;5031302;28;20093;-68
2022/04/15 02:10:32;;;;;;;329.27;302.25;;;;;;;18.96;36.15;94138.81;5020473;28;20115;-68
2022/04/15 02:12:57;;;;;;;331.25;303.27;;;;;;;18.93;36.25;94156.75;5028724;28;20073;-68
2022/04/15 02:15:23;;;;;;;351.10;321.88;;;;;;;18.92;36.26;94163.38;5032815;28;20203;-68
2022/04/15 02:17:49;;;;;;;335.70;307.77;;;;;;;18.93;36.40;94156.75;5033643;28;20041;-68
2022/04/15 02:20:14;;;;;;;352.17;323.15;;;;;;;18.93;36.39;94142.44;5016558;28;20049;-68
2022/04/15 02:22:39;;;;;;;398.65;367.27;;;;;;;18.94;36.18;94122.25;5011696;28;20037;-66
2022/04/15 02:25:06;;;;;;;336.65;308.83;;;;;;;18.93;36.18;94118.78;5010304;28;20036;-67
2022/04/15 02:27:31;;;;;;;327.65;300.40;;;;;;;18.93;36.29;94118.03;5017455;28;20048;-66
2022/04/15 02:29:57;;;;;;;333.75;305.92;;;;;;;18.92;36.33;94119.25;5018939;28;20049;-67
2022/04/15 02:32:23;;;;;;;330.40;302.75;;;;;;;18.91;36.41;94110.38;5023910;28;20033;-67
2022/04/15 02:34:50;;;;;;;338.48;309.67;;;;;;;18.93;36.26;94116.09;5028606;28;20055;-67
2022/04/15 02:37:15;;;;;;;336.65;308.45;;;;;;;18.95;36.36;94124.50;5006779;28;20048;-67
2022/04/15 02:39:41;;;;;;;332.63;304.73;;;;;;;18.95;36.30;94121.81;5017378;28;20461;-67
2022/04/15 02:42:07;;;;;;;328.50;301.25;;;;;;;18.93;36.26;94118.03;5032149;28;20067;-67
2022/04/15 02:44:32;;;;;;;330.83;303.45;;;;;;;18.93;36.54;94124.22;5036172;28;20620;-66
2022/04/15 02:46:58;;;;;;;342.30;312.77;;;;;;;18.93;36.33;94135.06;5029502;28;20643;-66
2022/04/15 02:49:26;;;;;;;329.77;302.35;;;;;;;18.94;36.46;94138.50;5012011;28;20064;-67
2022/04/15 02:51:52;;;;;;;323.05;295.52;;;;;;;18.94;36.39;94141.97;5032134;28;20047;-67
2022/04/15 02:54:20;;;;;;;329.40;301.73;;;;;;;18.92;36.45;94136.25;5028586;28;20041;-67
2022/04/15 02:56:45;;;;;;;332.25;303.85;;;;;;;18.93;36.45;94137.00;5032293;28;20056;-66
2022/04/15 02:59:10;;;;;;;336.00;307.63;;;;;;;18.91;36.39;94137.47;5018936;28;20633;-66
2022/04/15 03:01:36;;;;;;;325.55;298.70;;;;;;;18.92;36.23;94155.22;5026252;28;20067;-67
2022/04/15 03:04:02;;;;;;;332.60;304.65;;;;;;;18.90;36.49;94143.34;5029698;28;20175;-67
2022/04/15 03:06:27;;;;;;;333.50;305.45;;;;;;;18.90;36.42;94143.34;5031902;28;20045;-67
2022/04/15 03:08:55;;;;;;;317.08;290.42;;;;;;;18.89;36.47;94158.09;5030807;28;20033;-67
2022/04/15 03:11:20;;;;;;;324.40;297.02;;;;;;;18.90;36.55;94149.50;5032223;28;20037;-67
2022/04/15 03:13:46;;;;;;;337.00;308.48;;;;;;;18.89;36.84;94156.16;5028059;28;20040;-67
2022/04/15 03:16:12;;;;;;;329.95;301.50;;;;;;;18.90;36.77;94154.19;5031578;28;20116;-67
2022/04/15 03:18:37;;;;;;;335.73;307.27;;;;;;;18.87;36.61;94153.13;5029176;28;20433;-67
2022/04/15 03:21:03;;;;;;;340.73;312.13;;;;;;;18.88;36.75;94156.59;5032069;28;20431;-67
2022/04/15 03:23:29;;;;;;;332.65;304.55;;;;;;;18.87;36.78;94166.69;5033105;28;20055;-67
2022/04/15 03:25:55;;;;;;;319.98;293.35;;;;;;;18.88;37.07;94154.63;5017766;28;20139;-67
2022/04/15 03:28:20;;;;;;;333.83;306.13;;;;;;;18.88;37.07;94156.59;5029287;28;20159;-67
2022/04/15 03:30:46;;;;;;;338.23;309.58;;;;;;;18.87;36.88;94163.97;5038378;28;20215;-67
2022/04/15 03:33:12;;;;;;;337.83;309.50;;;;;;;18.87;36.86;94160.50;5033792;28;20128;-67
2022/04/15 03:35:38;;;;;;;341.02;312.17;;;;;;;18.85;37.05;94147.41;5011302;28;20056;-67
2022/04/15 03:38:04;;;;;;;330.73;303.50;;;;;;;18.86;37.18;94145.47;5018044;28;20060;-67
2022/04/15 03:40:29;;;;;;;337.67;309.63;;;;;;;18.85;37.12;94147.41;5032902;28;20045;-68
2022/04/15 03:42:56;;;;;;;320.27;293.65;;;;;;;18.84;37.29;94153.31;5039417;28;20449;-67
2022/04/15 03:45:22;;;;;;;334.45;306.27;;;;;;;18.84;37.28;94156.03;5011760;28;20051;-67
2022/04/15 03:47:52;;;;;;;329.90;302.63;;;;;;;18.84;37.47;94164.91;5031158;28;20045;-67
2022/04/15 03:50:18;;;;;;;343.52;314.35;;;;;;;18.83;37.42;94157.25;5034472;28;20554;-68
2022/04/15 03:52:48;;;;;;;324.55;296.98;;;;;;;18.84;37.39;94158.75;5015326;28;20041;-67
2022/04/15 03:55:16;;;;;;;334.60;306.08;;;;;;;18.86;37.54;94157.06;5026391;28;20062;-67
2022/04/15 03:57:42;;;;;;;336.77;308.23;;;;;;;18.86;37.47;94153.59;5012893;28;20144;-67
2022/04/15 04:00:11;;;;;;;339.73;310.52;;;;;;;18.88;37.33;94151.19;5036394;28;20041;-67
2022/04/15 04:02:37;;;;;;;339.45;311.25;;;;;;;18.89;37.43;94158.84;5028989;28;20041;-67
2022/04/15 04:05:04;;;;;;;332.90;305.13;;;;;;;18.91;37.29;94156.44;5008513;28;20119;-67
2022/04/15 04:07:30;;;;;;;339.13;310.38;;;;;;;18.90;37.45;94156.91;5030467;28;20490;-67
2022/04/15 04:09:56;;;;;;;338.38;310.70;;;;;;;18.93;37.57;94154.03;5035754;28;20140;-67
2022/04/15 04:12:22;;;;;;;350.48;320.88;;;;;;;18.97;37.53;94151.16;5034669;28;20081;-67
2022/04/15 04:14:48;;;;;;;323.67;296.48;;;;;;;18.98;37.61;94153.41;5016256;28;20461;-67
2022/04/15 04:17:13;;;;;;;341.05;312.63;;;;;;;19.01;37.64;94147.06;5016917;28;20045;-67
2022/04/15 04:19:38;;;;;;;329.70;302.33;;;;;;;19.02;37.58;94151.28;5036706;28;20041;-67
2022/04/15 04:22:04;;;;;;;330.42;302.98;;;;;;;19.05;37.54;94146.91;5031961;28;20034;-67
2022/04/15 04:24:30;;;;;;;324.35;297.42;;;;;;;19.07;37.55;94156.09;5035529;28;20041;-67
2022/04/15 04:26:56;;;;;;;370.45;339.65;;;;;;;19.10;37.59;94167.97;5035162;28;20037;-67
2022/04/15 04:29:21;;;;;;;340.60;312.90;;;;;;;19.11;37.46;94174.91;5032208;28;20040;-67
2022/04/15 04:31:47;;;;;;;339.58;311.88;;;;;;;19.13;37.59;94177.91;5019063;28;20048;-67
2022/04/15 04:34:12;;;;;;;352.50;323.67;;;;;;;19.12;37.50;94179.13;5030742;28;20113;-67
2022/04/15 04:36:38;;;;;;;345.90;317.35;;;;;;;19.15;37.53;94180.16;5035367;28;20505;-67
2022/04/15 04:39:08;;;;;;;339.23;311.83;;;;;;;19.17;37.36;94177.75;5035450;28;20075;-67
2022/04/15 04:41:35;;;;;;;338.50;311.47;;;;;;;19.19;37.75;94167.22;5032614;28;20053;-68
2022/04/15 04:44:00;;;;;;;353.15;324.50;;;;;;;19.20;37.41;94171.41;5023817;28;20633;-67
2022/04/15 04:46:29;;;;;;;347.98;320.73;;;;;;;19.20;37.47;94183.03;5029794;28;20061;-67
2022/04/15 04:48:55;;;;;;;339.17;311.60;;;;;;;19.21;37.43;94176.38;5018678;28;20045;-67
2022/04/15 04:51:21;;;;;;;348.02;319.20;;;;;;;19.22;37.56;94177.88;5034230;28;20046;-67
2022/04/15 04:53:47;;;;;;;344.17;316.65;;;;;;;19.23;37.45;94178.63;5029342;28;20522;-67
2022/04/15 04:56:15;;;;;;;346.35;317.92;;;;;;;19.24;37.49;94180.91;5034013;28;20070;-67
2022/04/15 04:58:41;;;;;;;348.98;321.08;;;;;;;19.25;37.46;94193.25;5034773;28;20033;-67
2022/04/15 05:01:07;;;;;;;343.45;315.67;;;;;;;19.25;37.44;94182.41;5014874;28;20159;-67
2022/04/15 05:03:33;;;;;;;357.70;329.13;;;;;;;19.26;37.54;94185.88;5031674;28;20068;-67
2022/04/15 05:05:58;;;;;;;343.85;316.00;;;;;;;19.26;37.28;94192.03;5037889;28;20158;-67
2022/04/15 05:08:24;;;;;;;359.13;329.95;;;;;;;19.27;37.61;94190.06;5032064;28;21189;-67
2022/04/15 05:10:49;;;;;;;366.90;337.73;;;;;;;19.28;37.52;94191.59;5025179;28;20044;-68
2022/04/15 05:13:18;;;;;;;359.33;330.48;;;;;;;19.27;37.78;94196.25;5018614;28;20493;-67
2022/04/15 05:15:44;;;;;;;344.88;317.25;;;;;;;19.29;37.47;94198.50;5041750;28;20051;-67
2022/04/15 05:18:09;;;;;;;354.00;325.85;;;;;;;19.28;37.39;94197.00;5031886;28;20037;-67
2022/04/15 05:20:37;;;;;;;367.33;337.13;;;;;;;19.28;37.66;94197.75;5022769;28;20041;-68
2022/04/15 05:23:02;;;;;;;359.13;330.17;;;;;;;19.27;37.61;94198.97;5037888;28;20045;-68
2022/04/15 05:25:28;;;;;;;341.23;313.98;;;;;;;19.29;37.62;94210.09;5034904;28;20341;-67
2022/04/15 05:27:54;;;;;;;348.60;320.42;;;;;;;19.32;37.35;94208.44;5034760;28;20048;-68
2022/04/15 05:30:19;;;;;;;369.60;337.88;;;;;;;19.31;37.55;94210.41;5011996;28;20045;-68
2022/04/15 05:32:45;;;;;;;354.92;324.80;;;;;;;19.32;37.57;94211.16;5015737;28;20869;-68
2022/04/15 05:35:10;;;;;;;365.30;334.88;;;;;;;19.31;37.65;94210.41;5018855;28;20045;-69
2022/04/15 05:37:37;;;;;;;372.00;340.70;;;;;;;19.33;37.62;94216.13;5015382;28;20638;-68
2022/04/15 05:40:03;;;;;;;352.58;323.20;;;;;;;19.34;37.37;94216.88;5004322;28;20048;-69
2022/04/15 05:42:29;;;;;;;360.75;331.30;;;;;;;19.35;37.53;94218.38;5000434;28;20173;-68
2022/04/15 05:44:54;;;;;;;371.75;340.52;;;;;;;19.35;37.34;94223.81;5020276;28;21205;-69
2022/04/15 05:47:20;;;;;;;372.20;340.27;;;;;;;19.35;37.69;94223.81;5018132;28;20045;-69
2022/04/15 05:49:46;;;;;;;370.13;339.10;;;;;;;19.36;37.75;94233.44;5019088;28;20048;-73
2022/04/15 05:52:11;;;;;;;373.92;342.23;;;;;;;19.34;37.73;94228.47;5021068;28;20037;-71
2022/04/15 05:54:37;;;;;;;380.42;349.17;;;;;;;19.33;37.88;94231.63;5022917;28;20509;-71
2022/04/15 05:57:03;;;;;;;389.10;356.48;;;;;;;19.33;37.89;94237.06;5021338;28;20055;-70
2022/04/15 05:59:29;;;;;;;377.95;346.33;;;;;;;19.33;38.02;94231.63;5001833;28;20052;-73
2022/04/15 06:01:54;;;;;;;369.45;338.98;;;;;;;19.32;37.99;94243.69;5022232;28;20052;-71
2022/04/15 06:04:20;;;;;;;362.25;332.10;;;;;;;19.34;37.93;94244.00;5024672;28;20052;-71
2022/04/15 06:06:47;;;;;;;382.13;350.00;;;;;;;19.34;38.13;94242.03;5018756;28;20045;-69
2022/04/15 06:09:13;;;;;;;357.10;327.13;;;;;;;19.33;37.96;94243.25;5018618;28;21247;-67
2022/04/15 06:11:41;;;;;;;358.95;328.98;;;;;;;19.34;37.96;94250.16;5018646;28;20538;-68
2022/04/15 06:14:09;;;;;;;385.50;353.95;;;;;;;19.32;38.27;94241.72;5020661;28;20184;-68
2022/04/15 06:16:37;;;;;;;356.65;326.27;;;;;;;19.32;38.24;94243.69;5019291;28;20119;-68
2022/04/15 06:19:06;;;;;;;356.33;327.42;;;;;;;19.31;38.27;94244.91;4999447;28;21280;-67
2022/04/15 06:21:32;;;;;;;368.83;337.83;;;;;;;19.32;38.22;94249.88;5015515;28;20125;-68
2022/04/15 06:23:58;;;;;;;360.27;330.00;;;;;;;19.32;38.27;94249.13;5017656;28;20044;-67
2022/04/15 06:26:24;;;;;;;361.02;330.55;;;;;;;19.31;38.27;94248.38;4999071;28;20068;-68
2022/04/15 06:28:49;;;;;;;368.10;337.40;;;;;;;19.31;38.31;94250.31;5017474;28;20692;-67
2022/04/15 06:31:15;;;;;;;387.88;355.15;;;;;;;19.29;38.33;94250.03;5017129;28;20094;-67
2022/04/15 06:33:41;;;;;;;373.50;341.40;;;;;;;19.31;38.46;94259.22;5020084;28;20044;-67
2022/04/15 06:36:07;;;;;;;376.42;344.92;;;;;;;19.31;38.44;94256.50;5017120;28;20040;-68
2022/04/15 06:38:33;;;;;;;367.42;337.48;;;;;;;19.32;38.51;94258.00;5013188;28;20135;-67
2022/04/15 06:40:58;;;;;;;373.27;342.13;;;;;;;19.31;38.64;94247.63;5013882;28;20048;-68
2022/04/15 06:43:24;;;;;;;384.10;351.58;;;;;;;19.33;38.51;94253.34;5014925;28;20107;-68
2022/04/15 06:45:50;;;;;;;380.15;348.27;;;;;;;19.33;38.53;94264.19;5014728;28;20044;-68
2022/04/15 06:48:16;;;;;;;383.95;351.77;;;;;;;19.32;38.32;94262.69;5014140;28;20045;-69
2022/04/15 06:50:41;;;;;;;368.70;337.00;;;;;;;19.34;38.44;94263.72;4997960;28;20080;-68
2022/04/15 06:53:07;;;;;;;378.25;346.58;;;;;;;19.33;38.30;94267.66;5018688;28;20049;-68
2022/04/15 06:55:36;;;;;;;390.17;356.70;;;;;;;19.34;38.49;94271.09;4994553;28;20049;-69
2022/04/15 06:58:02;;;;;;;374.27;342.80;;;;;;;19.32;38.46;94266.13;4996827;28;20048;-69
2022/04/15 07:00:27;;;;;;;378.38;346.65;;;;;;;19.29;38.38;94264.34;5014899;28;20045;-68
2022/04/15 07:02:53;;;;;;;376.75;346.17;;;;;;;19.28;38.55;94267.50;5015707;28;20750;-68
2022/04/15 07:05:19;;;;;;;385.33;353.52;;;;;;;19.27;38.47;94269.47;4999285;28;20068;-68
2022/04/15 07:07:44;;;;;;;395.13;362.80;;;;;;;19.25;38.51;94271.13;5011523;28;22676;-68
2022/04/15 07:10:12;;;;;;;455.15;419.65;;;;;;;19.23;38.55;94274.28;5018953;28;20043;-68
2022/04/15 07:12:38;;;;;;;367.52;336.23;;;;;;;19.20;38.69;94275.19;5014733;28;20055;-68
2022/04/15 07:15:06;;;;;;;385.77;353.25;;;;;;;19.19;38.76;94270.22;5015928;28;20474;-67
2022/04/15 07:17:32;;;;;;;373.98;341.63;;;;;;;19.19;38.84;94278.38;5014351;28;20095;-68
2022/04/15 07:19:57;;;;;;;343.08;314.38;;;;;;;19.18;38.66;94274.91;5013597;28;20045;-68
2022/04/15 07:22:23;;;;;;;348.33;319.70;;;;;;;19.15;39.02;94270.38;5020660;28;20049;-68
2022/04/15 07:24:50;;;;;;;368.92;338.17;;;;;;;19.14;38.76;94268.13;5012075;28;20064;-69
2022/04/15 07:27:16;;;;;;;368.65;337.88;;;;;;;19.13;39.08;94272.03;4974784;28;20075;-69
2022/04/15 07:29:44;;;;;;;365.20;334.05;;;;;;;19.12;39.30;94274.00;5015232;28;20037;-69
2022/04/15 07:32:10;;;;;;;368.60;336.95;;;;;;;19.11;39.54;94277.91;5015960;28;20067;-69
2022/04/15 07:34:36;;;;;;;369.70;338.35;;;;;;;19.11;39.27;94275.22;5013581;28;20698;-69
2022/04/15 07:37:02;;;;;;;365.25;332.92;;;;;;;19.10;39.34;94281.84;5015694;28;20128;-68
2022/04/15 07:39:29;;;;;;;374.92;342.10;;;;;;;19.09;39.57;94280.34;4979615;28;20063;-68
2022/04/15 07:41:54;;;;;;;349.45;319.20;;;;;;;19.07;39.72;94278.06;5019539;28;20135;-69
2022/04/15 07:44:20;;;;;;;371.30;339.25;;;;;;;19.06;39.69;94278.53;5000211;28;20938;-68
2022/04/15 07:46:46;;;;;;;358.02;327.65;;;;;;;19.05;39.92;94274.31;5020763;28;20089;-68
2022/04/15 07:49:13;;;;;;;347.45;318.25;;;;;;;19.05;39.61;94277.03;5017472;28;20064;-68
2022/04/15 07:51:39;;;;;;;368.40;336.65;;;;;;;19.05;39.78;94277.78;5017312;28;20040;-69
2022/04/15 07:54:06;;;;;;;359.80;328.63;;;;;;;19.05;39.91;94279.75;5019282;28;20041;-69
2022/04/15 07:56:33;;;;;;;357.88;328.27;;;;;;;19.06;39.82;94294.78;5017164;28;21814;-68
2022/04/15 07:59:00;;;;;;;347.38;317.48;;;;;;;19.05;39.66;94291.34;5019303;28;20651;-69
2022/04/15 08:01:27;;;;;;;354.40;323.83;;;;;;;19.06;39.91;94292.09;5017128;28;20508;-68
2022/04/15 08:03:54;;;;;;;351.65;321.48;;;;;;;19.05;39.65;94291.34;5018472;28;20435;-68
2022/04/15 08:06:22;;;;;;;344.35;315.70;;;;;;;19.03;39.79;94293.00;5019666;28;20408;-68
2022/04/15 08:08:49;;;;;;;355.08;324.52;;;;;;;19.05;39.86;94299.47;4999618;28;20055;-69
2022/04/15 08:11:15;;;;;;;342.17;312.73;;;;;;;19.06;39.84;94302.94;5020716;28;20504;-68
2022/04/15 08:13:41;;;;;;;362.13;330.13;;;;;;;19.04;39.98;94297.97;5011196;28;20677;-68
2022/04/15 08:16:08;;;;;;;364.75;333.25;;;;;;;19.05;39.97;94309.56;5014626;28;20041;-69
2022/04/15 08:18:34;;;;;;;376.67;343.33;;;;;;;19.06;39.93;94311.81;4984351;28;20053;-68
2022/04/15 08:21:00;;;;;;;349.35;319.23;;;;;;;19.07;39.79;94307.16;5017482;28;20111;-69
2022/04/15 08:23:27;;;;;;;351.35;321.48;;;;;;;19.08;39.79;94312.13;4991520;28;20045;-69
2022/04/15 08:25:52;;;;;;;365.33;334.67;;;;;;;19.06;39.59;94308.34;5019539;28;20174;-69
2022/04/15 08:28:18;;;;;;;361.17;328.92;;;;;;;19.05;39.74;94312.25;4995026;28;20108;-69
2022/04/15 08:30:44;;;;;;;357.30;326.08;;;;;;;19.03;40.01;94311.97;5000527;28;20528;-69
2022/04/15 08:33:10;;;;;;;363.63;332.13;;;;;;;19.02;39.97;94315.88;5013012;28;20586;-68
2022/04/15 08:35:36;;;;;;;362.55;331.20;;;;;;;19.00;39.99;94310.91;5017528;28;21484;-69
2022/04/15 08:38:02;;;;;;;344.13;314.75;;;;;;;19.01;40.04;94322.50;5012060;28;20041;-68
2022/04/15 08:40:33;;;;;;;354.90;324.10;;;;;;;19.00;40.11;94310.16;5017155;28;20076;-67
2022/04/15 08:43:00;;;;;;;356.80;325.63;;;;;;;19.01;39.94;94317.09;5017537;28;20071;-68
2022/04/15 08:45:28;;;;;;;367.15;335.48;;;;;;;19.00;40.07;94318.28;5019244;28;20056;-69
2022/04/15 08:48:00;;;;;;;369.42;337.27;;;;;;;19.00;40.17;94326.41;5013632;28;20598;-68
2022/04/15 08:50:30;;;;;;;372.63;339.65;;;;;;;18.99;40.13;94322.97;5015617;28;20029;-68
2022/04/15 08:52:58;;;;;;;350.65;320.00;;;;;;;18.98;40.14;94326.13;5014267;28;20044;-68
2022/04/15 08:55:25;;;;;;;364.80;333.38;;;;;;;18.99;39.85;94328.38;5015170;28;20151;-69
2022/04/15 08:57:52;;;;;;;355.98;325.17;;;;;;;18.99;39.87;94331.09;5014864;28;20045;-68
2022/04/15 09:00:19;;;;;;;345.13;315.83;;;;;;;18.99;39.83;94324.91;5002167;28;20851;-68
2022/04/15 09:02:46;;;;;;;360.25;329.85;;;;;;;18.99;39.69;94325.66;5016222;28;20123;-68
2022/04/15 09:05:13;;;;;;;352.42;321.92;;;;;;;18.99;39.79;94324.91;4998824;28;20140;-68
2022/04/15 09:07:39;;;;;;;371.73;339.27;;;;;;;19.00;39.70;94324.47;5002974;28;20052;-68
2022/04/15 09:10:07;;;;;;;348.42;319.63;;;;;;;19.01;39.94;94328.69;5000692;28;20916;-68
2022/04/15 09:12:37;;;;;;;;;;;;;;;19.02;39.62;94338.31;5000434;28;20883;-69
2022/04/15 09:15:06;;;;;;;345.67;315.83;;;;;;;19.01;39.88;94331.38;5004480;28;21648;-68
2022/04/15 09:17:36;;;;;;;360.33;328.20;;;;;;;19.03;39.68;94336.34;5014990;28;20695;-68
2022/04/15 09:20:04;;;;;;;344.83;314.88;;;;;;;19.02;39.74;94332.16;4968092;28;20088;-68
2022/04/15 09:22:30;;;;;;;367.58;336.40;;;;;;;19.01;39.69;94325.22;5015041;28;20048;-68
2022/04/15 09:24:58;;;;;;;364.92;333.98;;;;;;;19.01;39.84;94327.94;5014524;28;20049;-68
2022/04/15 09:27:28;;;;;;;357.77;326.52;;;;;;;19.01;39.62;94330.63;5015746;28;20817;-68
2022/04/15 09:29:54;;;;;;;343.20;313.45;;;;;;;19.00;39.78;94329.88;5017674;28;20056;-69
2022/04/15 09:32:22;;;;;;;336.30;307.98;;;;;;;19.01;39.74;94328.69;5004496;28;20041;-68
2022/04/15 09:35:08;;;;;;;348.55;318.15;;;;;;;19.02;39.49;94334.84;4999156;28;20056;-68
2022/04/15 09:37:45;;;;;;;348.05;317.50;;;;;;;19.02;39.64;94326.72;5014062;28;21295;-69
2022/04/15 09:40:25;;;;;;;355.05;324.23;;;;;;;19.03;39.47;94334.41;5017311;28;20059;-69
2022/04/15 09:42:59;;;;;;;372.42;339.45;;;;;;;19.03;39.30;94339.06;5011727;28;20061;-67
2022/04/15 09:45:36;;;;;;;349.02;318.67;;;;;;;19.03;39.60;94334.41;4979703;28;20057;-67
2022/04/15 09:48:13;;;;;;;355.42;325.13;;;;;;;19.02;39.62;94334.84;5020605;28;22657;-69
2022/04/15 09:50:48;;;;;;;352.75;322.27;;;;;;;19.02;39.47;94332.91;5019501;28;20548;-68
2022/04/15 09:53:28;;;;;;;357.33;326.98;;;;;;;19.00;39.68;94329.13;5021077;28;20053;-67
2022/04/15 09:55:56;;;;;;;352.17;321.83;;;;;;;19.00;39.72;94335.31;4997284;28;20064;-67
2022/04/15 10:01:21;;;;;;;340.02;310.13;;;;;;;19.00;39.78;94329.13;5019955;28;20061;-68
2022/04/15 10:03:51;;;;;;;352.75;322.42;;;;;;;19.01;39.62;94331.38;5019878;28;20116;-67
2022/04/15 10:06:17;;;;;;;354.02;323.95;;;;;;;19.02;39.70;94318.59;5018492;28;20052;-68
2022/04/15 10:08:44;;;;;;;366.95;335.58;;;;;;;19.03;39.49;94330.94;5016486;28;20045;-68
2022/04/15 10:11:11;;;;;;;380.23;346.20;;;;;;;19.06;39.50;94327.31;5016361;28;20076;-68
2022/04/15 10:13:38;;;;;;;357.85;326.63;;;;;;;19.06;39.54;94321.91;4998850;28;20122;-68
2022/04/15 10:16:05;;;;;;;366.98;335.73;;;;;;;19.07;39.58;94316.03;5013125;28;20052;-68
2022/04/15 10:18:34;;;;;;;375.65;343.27;;;;;;;19.01;39.69;94325.97;5015378;28;20063;-68
2022/04/15 10:21:03;;;;;;;352.58;322.52;;;;;;;19.00;40.07;94323.72;5017648;28;20045;-68
2022/04/15 10:23:30;;;;;;;336.35;308.10;;;;;;;18.98;40.05;94315.28;5033562;28;20033;-67
2022/04/15 10:25:59;;;;;;;334.35;306.55;;;;;;;18.98;40.34;94313.31;5038452;28;20123;-67
2022/04/15 10:28:47;;;;;;;351.02;321.83;;;;;;;19.03;39.88;94317.38;5022336;28;21425;-67
2022/04/15 10:31:20;;;;;;;336.65;308.70;;;;;;;19.05;39.81;94320.41;5033102;28;20140;-67
2022/04/15 10:33:49;;;;;;;344.35;315.60;;;;;;;19.06;39.69;94313.78;5002683;28;20147;-70
2022/04/15 10:36:31;;;;;;;350.33;321.77;;;;;;;19.08;39.81;94317.53;5004807;28;20048;-69
2022/04/15 10:39:07;;;;;;;344.42;315.98;;;;;;;19.08;39.80;94311.38;5013105;28;20163;-71
2022/04/15 10:41:51;;;;;;;340.63;312.33;;;;;;;19.08;39.71;94317.53;5014971;28;20047;-71
2022/04/15 10:44:29;;;;;;;327.80;300.40;;;;;;;19.06;39.90;94313.78;5017735;28;20037;-71
2022/04/15 10:47:19;;;;;;;343.40;314.83;;;;;;;19.08;39.80;94306.69;5035942;28;20098;-67
2022/04/15 10:50:04;;;;;;;345.92;316.15;;;;;;;19.09;39.97;94312.88;5009164;28;20053;-69
2022/04/15 10:52:33;;;;;;;339.52;311.73;;;;;;;19.06;39.93;94317.22;5042983;28;20037;-71
2022/04/15 10:54:59;;;;;;;342.50;314.48;;;;;;;19.04;40.21;94310.75;5014687;28;20049;-73
2022/04/15 10:58:10;;;;;;;368.05;337.50;;;;;;;19.01;40.20;94312.41;5034193;28;20049;-70
2022/04/15 11:03:25;;;;;;;340.63;312.83;;;;;;;19.01;40.63;94303.53;5037592;28;20131;-68
2022/04/15 11:05:56;;;;;;;336.58;308.77;;;;;;;19.03;40.67;94307.28;5015733;28;20045;-69
2022/04/15 11:08:26;;;;;;;338.80;311.50;;;;;;;19.04;40.58;94303.38;5016944;28;20044;-68